Terminal Aerodrome Forecast
Issued by NWS

Home | Current Version | Previous Version | Text Only | Print | Product List | Glossary On
Versions: 1 2 3 4 5 6 7 8 9 10
221
FTUS44 KEPZ 241120
TAFLRU
TAF
KLRU 241120Z 2412/2512 27010KT P6SM SCT250
     FM241700 25018G27KT P6SM SKC
     FM242000 25027G36KT P6SM SKC
      TEMPO 2420/2424 1SM BLDU
     FM250300 25018G28KT P6SM SKC=

USA.gov is the U.S. government's official web portal to all federal, state and local government web resources and services.